Weather at Leonard M Thompson International Airport

Public forecast

Using degrees Celsius for public forecast. Weather courtesy of forecast.io.

Closest aviation weather report (METAR) to Leonard M Thompson International Airport

Closest report is Grand Bahama International Airport, 86.6 nm (160.5 km) W. Retrieved 2020/10/01 12:00 UTC (12 minutes ago):

MYGF 011200Z 06004KT 9999 -RA SCT014CB BKN035 BKN100 25/25 A2996

Closest aviation forecast (TAF) to Leonard M Thompson International Airport

Closest forecast is Grand Bahama International Airport, 86.6 nm (160.5 km) W. Retrieved 2020/10/01 06:52 UTC (5 hours ago):

TAF MYGF 010435Z 0106/0206 07005KT 9000 SHRA VCTS SCT018CB SCT150 BKN200 FM011800 4005G15KT 6000 TSRA SCT014CB BKN090 BKN200